Time;durP1;ratioP1;P1;durP2;ratioP2;P2;SDS_P1;SDS_P2;PMS_P1;PMS_P2;Temp;Humidity;BMP_temperature;BMP_pressure;BME280_temperature;BME280_humidity;BME280_pressure;Samples;Min_cycle;Max_cycle;Signal;HPM_P1;HPM_P2
2023/08/04 00:00:47;;;;;;;4.55;2.63;;;;;;;25.48;66.33;99798.03;4993697;28;20046;-68
2023/08/04 00:03:15;;;;;;;2.50;2.30;;;;;;;25.41;67.97;99798.84;4993864;28;20050;-69
2023/08/04 00:05:43;;;;;;;3.83;2.00;;;;;;;25.34;67.13;99804.44;4993496;28;20053;-69
2023/08/04 00:08:11;;;;;;;3.22;2.17;;;;;;;25.34;67.11;99802.47;4993711;28;20062;-68
2023/08/04 00:10:40;;;;;;;2.83;2.30;;;;;;;25.39;65.89;99808.84;4993580;28;20054;-68
2023/08/04 00:13:08;;;;;;;2.45;2.25;;;;;;;25.41;68.90;99800.84;4992138;28;20057;-68
2023/08/04 00:15:36;;;;;;;3.15;2.35;;;;;;;25.44;66.43;99798.06;4993256;28;20058;-68
2023/08/04 00:18:04;;;;;;;5.22;1.90;;;;;;;25.40;66.07;99802.84;4992889;28;20049;-68
2023/08/04 00:20:32;;;;;;;6.80;3.13;;;;;;;25.47;67.44;99793.66;4993091;28;20489;-69
2023/08/04 00:23:00;;;;;;;2.70;2.40;;;;;;;25.32;69.15;99790.06;4993167;28;20050;-68
2023/08/04 00:25:28;;;;;;;2.63;2.40;;;;;;;25.07;70.35;99788.06;4993160;28;20065;-67
2023/08/04 00:27:56;;;;;;;4.22;2.60;;;;;;;25.01;70.14;99800.84;4993364;28;20051;-67
2023/08/04 00:30:24;;;;;;;2.50;2.08;;;;;;;24.88;71.56;99794.84;4992927;28;20126;-67
2023/08/04 00:32:53;;;;;;;4.13;2.50;;;;;;;24.81;72.64;99799.22;4993181;28;20054;-68
2023/08/04 00:35:21;;;;;;;4.35;2.30;;;;;;;24.73;72.12;99794.78;4993344;28;20504;-67
2023/08/04 00:37:49;;;;;;;3.88;2.03;;;;;;;24.76;71.74;99782.81;4993008;28;20046;-67
2023/08/04 00:40:17;;;;;;;4.35;2.50;;;;;;;24.73;72.34;99785.59;5007863;28;20050;-67
2023/08/04 00:42:45;;;;;;;2.97;2.35;;;;;;;24.78;71.23;99786.00;4991600;28;20046;-68
2023/08/04 00:45:13;;;;;;;2.70;2.30;;;;;;;24.84;71.18;99783.66;4991475;28;20054;-69
2023/08/04 00:47:41;;;;;;;6.28;2.70;;;;;;;24.86;71.83;99786.03;4992834;28;20046;-67
2023/08/04 00:50:10;;;;;;;4.30;2.50;;;;;;;24.81;73.30;99784.44;4991113;28;20057;-67
2023/08/04 00:52:39;;;;;;;4.47;2.70;;;;;;;24.80;72.94;99788.41;4992811;28;20062;-68
2023/08/04 00:55:08;;;;;;;3.63;2.58;;;;;;;24.85;71.05;99785.25;4992758;28;20065;-68
2023/08/04 00:57:37;;;;;;;5.85;2.58;;;;;;;24.75;73.12;99786.81;4992356;28;20061;-67
2023/08/04 01:00:06;;;;;;;5.30;2.60;;;;;;;24.61;73.69;99786.75;4992633;28;20485;-68
2023/08/04 01:02:34;;;;;;;3.00;2.38;;;;;;;24.68;72.80;99787.59;4992658;28;20062;-68
2023/08/04 01:05:03;;;;;;;3.53;2.58;;;;;;;24.61;73.91;99781.97;4975198;28;20445;-67
2023/08/04 01:08:14;;;;;;;3.83;2.60;;;;;;;24.59;72.97;99778.78;4991838;28;20051;-67
2023/08/04 01:11:13;;;;;;;4.82;2.75;;;;;;;24.60;73.24;99783.19;4985766;28;20051;-67
2023/08/04 01:13:42;;;;;;;3.70;2.50;;;;;;;24.65;72.02;99774.41;4981277;28;20061;-67
2023/08/04 01:16:11;;;;;;;2.40;2.20;;;;;;;24.66;72.90;99766.78;4992315;28;20066;-70
2023/08/04 01:18:39;;;;;;;3.67;2.45;;;;;;;24.49;71.34;99763.56;4992287;28;20046;-67
2023/08/04 01:21:07;;;;;;;4.47;2.10;;;;;;;24.53;72.75;99758.78;4992082;28;20050;-67
2023/08/04 01:23:35;;;;;;;3.28;2.05;;;;;;;24.51;73.02;99763.97;4975077;28;20486;-68
2023/08/04 01:26:06;;;;;;;2.70;2.30;;;;;;;24.46;74.57;99767.16;4992331;28;20413;-67
2023/08/04 01:28:35;;;;;;;2.30;2.10;;;;;;;24.48;74.54;99769.56;4992474;28;20058;-67
2023/08/04 01:31:04;;;;;;;4.60;2.17;;;;;;;24.41;72.65;99759.97;4974090;28;20061;-67
2023/08/04 01:33:33;;;;;;;3.85;1.83;;;;;;;24.42;72.68;99758.75;4976104;28;20057;-67
2023/08/04 01:36:01;;;;;;;3.20;2.17;;;;;;;24.41;72.43;99767.53;4995556;28;20513;-68
2023/08/04 01:38:29;;;;;;;4.90;1.80;;;;;;;24.32;72.51;99762.31;4995990;28;20050;-67
2023/08/04 01:40:56;;;;;;;3.35;2.30;;;;;;;24.33;72.40;99763.91;4978454;28;20048;-68
2023/08/04 01:43:24;;;;;;;2.88;1.90;;;;;;;24.44;72.13;99766.75;4978452;28;20046;-68
2023/08/04 01:45:52;;;;;;;3.53;2.38;;;;;;;24.31;74.09;99762.72;4995909;28;20393;-67
2023/08/04 01:48:20;;;;;;;5.20;2.28;;;;;;;24.29;74.08;99782.66;4978422;28;20049;-68
2023/08/04 01:50:48;;;;;;;2.88;2.10;;;;;;;24.27;74.08;99774.69;4978589;28;20065;-68
2023/08/04 01:53:16;;;;;;;3.60;2.33;;;;;;;24.25;73.91;99776.28;4995191;28;20055;-67
2023/08/04 01:55:47;;;;;;;2.28;2.08;;;;;;;24.16;74.27;99779.44;4995108;28;20058;-68
2023/08/04 01:58:15;;;;;;;3.05;2.40;;;;;;;24.21;76.71;99781.06;4977668;28;20057;-68
2023/08/04 02:00:43;;;;;;;3.45;1.95;;;;;;;24.12;74.87;99790.63;4995526;28;20054;-67
2023/08/04 02:03:11;;;;;;;3.33;2.55;;;;;;;24.16;75.01;99782.25;4978057;28;20053;-68
2023/08/04 02:05:48;;;;;;;2.67;2.15;;;;;;;24.11;75.35;99791.81;4994674;28;20042;-68
2023/08/04 02:08:16;;;;;;;4.85;2.10;;;;;;;24.22;75.62;99783.47;4995283;28;20046;-67
2023/08/04 02:10:49;;;;;;;6.35;2.47;;;;;;;24.21;77.25;99793.03;4995010;28;20074;-67
2023/08/04 02:13:17;;;;;;;5.40;3.05;;;;;;;24.19;76.54;99783.44;4995302;28;20055;-67
2023/08/04 02:15:45;;;;;;;9.75;2.97;;;;;;;24.16;85.26;99780.22;4994450;28;20839;-67
2023/08/04 02:18:13;;;;;;;8.20;2.70;;;;;;;23.93;85.10;99788.06;4995067;28;20050;-67
2023/08/04 02:20:41;;;;;;;7.25;3.00;;;;;;;23.88;84.17;99800.44;4961723;28;20061;-68
2023/08/04 02:23:10;;;;;;;6.57;2.35;;;;;;;23.64;85.50;99793.53;4995222;28;20055;-68
2023/08/04 02:25:38;;;;;;;8.30;3.08;;;;;;;23.41;86.55;99794.56;4994562;28;20058;-67
2023/08/04 02:28:07;;;;;;;7.95;2.88;;;;;;;23.30;87.26;99791.63;4977079;28;20054;-67
2023/08/04 02:30:35;;;;;;;2.85;2.33;;;;;;;23.19;83.36;99797.13;4976899;28;20051;-67
2023/08/04 02:33:03;;;;;;;2.72;2.40;;;;;;;23.16;86.63;99790.34;4994952;28;20505;-67
2023/08/04 02:35:31;;;;;;;3.17;2.33;;;;;;;23.24;83.62;99788.41;4994152;28;20466;-67
2023/08/04 02:37:59;;;;;;;4.53;3.10;;;;;;;23.27;82.56;99792.41;4994504;28;20409;-67
2023/08/04 02:40:27;;;;;;;4.85;2.38;;;;;;;23.31;82.52;99788.50;4994768;28;20042;-67
2023/08/04 02:42:55;;;;;;;5.07;2.50;;;;;;;23.32;84.73;99797.69;4994765;28;20490;-68
2023/08/04 02:45:23;;;;;;;2.45;2.20;;;;;;;23.24;82.06;99791.19;4993580;28;20053;-67
2023/08/04 02:47:51;;;;;;;3.58;2.00;;;;;;;23.26;82.62;99788.81;4994667;28;20050;-67
2023/08/04 02:50:19;;;;;;;4.80;2.25;;;;;;;23.39;83.49;99791.34;4994476;28;20054;-68
2023/08/04 02:52:47;;;;;;;4.30;2.10;;;;;;;23.16;82.30;99793.13;4996085;28;20050;-68
2023/08/04 02:55:14;;;;;;;2.97;2.47;;;;;;;23.29;83.13;99793.63;4994298;28;20050;-67
2023/08/04 02:57:42;;;;;;;5.25;2.08;;;;;;;23.19;85.04;99784.00;4976535;28;20481;-67
2023/08/04 03:00:11;;;;;;;3.58;2.60;;;;;;;23.11;85.93;99784.31;4994488;28;20053;-67
2023/08/04 03:02:38;;;;;;;3.17;2.38;;;;;;;23.06;82.36;99786.28;4994568;28;20050;-68
2023/08/04 03:05:07;;;;;;;2.28;2.08;;;;;;;23.06;82.24;99789.06;4994393;28;20050;-67
2023/08/04 03:07:35;;;;;;;2.35;2.10;;;;;;;22.89;80.91;99784.94;4993723;28;20066;-67
2023/08/04 03:10:03;;;;;;;2.10;1.90;;;;;;;22.74;80.47;99795.16;4994429;28;20050;-67
2023/08/04 03:12:31;;;;;;;2.55;2.20;;;;;;;22.82;79.95;99788.44;4994183;28;20847;-67
2023/08/04 03:14:59;;;;;;;5.13;1.80;;;;;;;22.94;78.40;99790.13;4994245;28;20054;-68
2023/08/04 03:17:28;;;;;;;3.85;2.03;;;;;;;22.93;80.64;99790.53;4994108;28;20049;-67
2023/08/04 03:19:56;;;;;;;2.58;2.00;;;;;;;22.90;78.29;99791.28;4993887;28;20053;-68
2023/08/04 03:22:24;;;;;;;3.95;2.15;;;;;;;22.96;79.61;99789.75;4993139;28;20062;-67
2023/08/04 03:24:53;;;;;;;6.65;2.78;;;;;;;22.97;78.54;99791.34;4993860;28;20046;-67
2023/08/04 03:27:21;;;;;;;3.25;2.22;;;;;;;23.11;77.29;99793.47;4991600;28;20057;-67
2023/08/04 03:29:49;;;;;;;4.20;2.20;;;;;;;22.91;79.44;99804.06;4993028;28;20122;-66
2023/08/04 03:32:17;;;;;;;3.33;2.13;;;;;;;22.86;79.68;99802.41;4993385;28;20053;-67
2023/08/04 03:34:45;;;;;;;3.97;2.15;;;;;;;22.84;77.78;99799.22;4993282;28;20050;-66
2023/08/04 03:37:13;;;;;;;5.00;2.28;;;;;;;22.78;79.04;99795.97;4993472;28;20046;-67
2023/08/04 03:39:40;;;;;;;5.15;1.73;;;;;;;22.76;77.26;99789.16;4993458;28;20398;-67
2023/08/04 03:42:09;;;;;;;4.15;1.88;;;;;;;22.85;77.97;99795.25;4992430;28;20058;-67
2023/08/04 03:44:37;;;;;;;3.38;2.28;;;;;;;22.96;76.37;99795.34;4993810;28;20050;-67
2023/08/04 03:47:05;;;;;;;6.57;2.05;;;;;;;22.95;77.15;99788.16;4993543;28;20054;-67
2023/08/04 03:49:33;;;;;;;2.78;2.05;;;;;;;22.91;80.25;99792.91;4993007;28;20046;-67
2023/08/04 03:52:01;;;;;;;5.43;2.50;;;;;;;22.91;80.09;99807.66;4993485;28;20367;-67
2023/08/04 03:54:29;;;;;;;4.35;2.05;;;;;;;22.93;81.46;99807.28;5009327;28;20052;-67
2023/08/04 03:56:56;;;;;;;3.97;2.10;;;;;;;22.95;80.36;99799.31;5012679;28;20065;-67
2023/08/04 03:59:24;;;;;;;2.05;1.85;;;;;;;22.96;80.70;99800.91;5012810;28;20058;-67
2023/08/04 04:01:52;;;;;;;3.83;2.40;;;;;;;22.79;79.02;99799.56;5012437;28;20416;-67
2023/08/04 04:04:21;;;;;;;6.35;2.47;;;;;;;22.80;80.53;99803.97;5012865;28;20397;-67
2023/08/04 04:06:49;;;;;;;2.90;2.20;;;;;;;22.68;78.71;99802.25;5012647;28;20054;-67
2023/08/04 04:09:17;;;;;;;5.22;2.20;;;;;;;22.62;80.25;99801.00;5012614;28;20041;-67
2023/08/04 04:11:45;;;;;;;4.00;2.50;;;;;;;22.65;80.47;99811.38;5012888;28;20046;-67
2023/08/04 04:14:13;;;;;;;5.50;2.08;;;;;;;22.69;80.43;99809.44;5012725;28;20052;-67
2023/08/04 04:16:41;;;;;;;3.85;2.30;;;;;;;22.79;82.69;99814.28;5012502;28;20413;-67
2023/08/04 04:19:09;;;;;;;3.90;2.13;;;;;;;22.71;79.13;99815.41;5012788;28;20077;-67
2023/08/04 04:21:37;;;;;;;4.68;2.28;;;;;;;22.72;78.20;99819.81;5012506;28;20046;-67
2023/08/04 04:24:05;;;;;;;2.92;2.05;;;;;;;22.84;78.62;99815.97;5012639;28;20061;-67
2023/08/04 04:26:33;;;;;;;5.72;2.38;;;;;;;22.91;80.64;99821.59;5012507;28;20409;-67
2023/08/04 04:29:01;;;;;;;3.78;2.22;;;;;;;22.90;80.13;99817.22;5012331;28;20072;-66
2023/08/04 04:31:29;;;;;;;4.78;2.58;;;;;;;22.79;80.81;99830.25;5012091;28;20493;-66
2023/08/04 04:33:57;;;;;;;4.65;2.45;;;;;;;22.87;81.59;99831.91;5012465;28;20388;-67
2023/08/04 04:36:24;;;;;;;4.90;2.35;;;;;;;22.68;80.89;99835.72;5012573;28;20485;-67
2023/08/04 04:38:52;;;;;;;6.18;2.42;;;;;;;22.65;79.92;99847.63;5012032;28;20050;-67
2023/08/04 04:41:20;;;;;;;3.45;2.47;;;;;;;22.45;80.71;99833.00;4994512;28;20053;-66
2023/08/04 04:43:48;;;;;;;3.60;2.47;;;;;;;22.50;81.61;99835.47;4994832;28;20493;-67
2023/08/04 04:46:16;;;;;;;5.68;2.65;;;;;;;22.51;81.27;99837.88;5011886;28;20050;-67
2023/08/04 04:48:44;;;;;;;6.18;2.55;;;;;;;22.58;80.87;99842.75;5011767;28;20058;-67
2023/08/04 04:51:12;;;;;;;5.97;2.63;;;;;;;22.50;80.38;99853.00;5011747;28;20061;-67
2023/08/04 04:53:40;;;;;;;3.92;2.70;;;;;;;22.55;80.86;99843.53;5010945;28;20053;-67
2023/08/04 04:56:08;;;;;;;2.47;1.95;;;;;;;22.77;79.84;99830.63;5011661;28;20115;-67
2023/08/04 04:58:35;;;;;;;5.28;2.40;;;;;;;22.89;82.88;99842.69;5012014;28;20062;-68
2023/08/04 05:01:05;;;;;;;3.13;2.50;;;;;;;22.92;79.90;99839.16;5011587;28;20049;-67
2023/08/04 05:03:33;;;;;;;3.95;2.42;;;;;;;22.88;79.03;99850.25;5012415;28;20034;-67
2023/08/04 05:06:00;;;;;;;3.20;2.33;;;;;;;23.00;78.47;99843.63;5011492;28;20050;-68
2023/08/04 05:08:28;;;;;;;5.05;2.78;;;;;;;23.07;79.32;99838.09;5013681;28;20727;-67
2023/08/04 05:10:56;;;;;;;7.22;2.70;;;;;;;23.08;78.81;99842.47;5014861;28;20378;-67
2023/08/04 05:13:24;;;;;;;2.38;2.08;;;;;;;23.22;80.58;99852.97;5015279;28;20493;-67
2023/08/04 05:15:52;;;;;;;5.28;2.53;;;;;;;23.17;78.27;99844.97;5014660;28;20049;-67
2023/08/04 05:18:20;;;;;;;4.18;2.40;;;;;;;23.17;79.80;99844.97;5015197;28;20417;-67
2023/08/04 05:20:48;;;;;;;2.58;2.03;;;;;;;23.25;79.65;99842.25;5015377;28;20056;-67
2023/08/04 05:23:16;;;;;;;8.10;2.40;;;;;;;23.29;79.59;99851.44;5014957;28;20061;-67
2023/08/04 05:25:44;;;;;;;5.63;1.67;;;;;;;23.42;76.68;99846.41;5015970;28;20057;-67
2023/08/04 05:28:38;;;;;;;2.63;2.08;;;;;;;23.41;76.61;99855.97;5014817;28;20058;-67
2023/08/04 05:31:08;;;;;;;3.17;2.40;;;;;;;23.45;74.25;99860.38;5013352;28;20053;-67
2023/08/04 05:33:36;;;;;;;3.45;2.10;;;;;;;23.57;74.96;99861.28;5014903;28;20054;-69
2023/08/04 05:36:04;;;;;;;2.78;2.15;;;;;;;23.61;76.48;99862.91;5014289;28;20378;-69
2023/08/04 05:38:32;;;;;;;3.53;2.40;;;;;;;23.66;74.42;99872.13;5015216;28;20057;-69
2023/08/04 05:41:01;;;;;;;3.75;2.42;;;;;;;23.75;76.19;99866.97;5015040;28;20057;-69
2023/08/04 05:43:29;;;;;;;3.15;2.25;;;;;;;23.88;74.53;99871.09;5015615;28;20038;-69
2023/08/04 05:46:02;;;;;;;2.22;2.03;;;;;;;24.00;75.08;99874.75;5014736;28;20436;-69
2023/08/04 05:48:32;;;;;;;4.40;2.08;;;;;;;24.07;76.62;99883.22;5015494;28;20045;-69
2023/08/04 05:51:00;;;;;;;4.40;2.13;;;;;;;24.02;76.64;99891.91;5015323;28;20054;-69
2023/08/04 05:53:28;;;;;;;2.22;2.00;;;;;;;24.09;75.71;99883.59;5014480;28;20061;-68
2023/08/04 05:55:56;;;;;;;5.80;2.28;;;;;;;24.20;74.08;99885.66;5014801;28;20061;-69
2023/08/04 05:58:24;;;;;;;4.85;2.55;;;;;;;24.24;74.76;99870.50;5013834;28;20050;-69
2023/08/04 06:00:52;;;;;;;5.40;2.40;;;;;;;24.42;75.05;99880.97;5014869;28;20038;-69
2023/08/04 06:03:20;;;;;;;6.82;2.60;;;;;;;24.55;75.54;99887.81;5015754;28;20493;-69
2023/08/04 06:05:48;;;;;;;5.43;2.03;;;;;;;24.73;73.73;99887.09;5014828;28;20057;-69
2023/08/04 06:08:17;;;;;;;3.40;2.35;;;;;;;24.90;72.42;99888.38;5014891;28;20046;-69
2023/08/04 06:10:45;;;;;;;2.85;1.88;;;;;;;25.05;70.37;99880.00;5015600;28;20172;-70
2023/08/04 06:13:14;;;;;;;3.85;2.22;;;;;;;24.99;69.77;99887.19;5014771;28;20054;-69
2023/08/04 06:15:43;;;;;;;5.25;2.15;;;;;;;24.91;70.25;99890.00;5014959;28;20061;-69
2023/08/04 06:18:11;;;;;;;6.65;2.53;;;;;;;25.03;73.83;99902.00;5015046;28;20378;-69
2023/08/04 06:20:39;;;;;;;4.85;2.15;;;;;;;25.16;71.05;99911.63;5014750;28;20046;-69
2023/08/04 06:23:08;;;;;;;3.90;2.25;;;;;;;25.28;72.63;99918.06;5015201;28;20056;-70
2023/08/04 06:25:36;;;;;;;3.65;2.00;;;;;;;25.35;67.51;99921.66;5014755;28;20058;-70
2023/08/04 06:28:04;;;;;;;5.90;2.05;;;;;;;25.36;67.94;99925.25;5014345;28;20065;-69
2023/08/04 06:30:33;;;;;;;3.00;2.08;;;;;;;25.45;67.48;99931.28;5014496;28;20478;-67
2023/08/04 06:33:01;;;;;;;3.65;1.80;;;;;;;25.66;67.58;99935.31;5013478;28;20057;-69
2023/08/04 06:35:29;;;;;;;3.50;1.92;;;;;;;25.65;66.88;99928.09;5013535;28;20060;-69
2023/08/04 06:37:58;;;;;;;8.00;2.67;;;;;;;25.58;67.24;99920.53;5013913;28;20412;-69
2023/08/04 06:40:27;;;;;;;2.97;1.88;;;;;;;25.59;67.67;99904.50;5014317;28;20050;-69
2023/08/04 06:42:55;;;;;;;2.08;1.70;;;;;;;25.54;68.62;99913.28;5013227;28;20053;-69
2023/08/04 06:45:24;;;;;;;4.15;1.95;;;;;;;25.45;66.01;99924.88;5014278;28;20389;-70
2023/08/04 06:47:52;;;;;;;6.95;2.08;;;;;;;25.61;65.45;99921.72;5013510;28;20049;-69
2023/08/04 06:50:20;;;;;;;4.50;1.73;;;;;;;25.57;66.22;99929.31;5013156;28;20062;-69
2023/08/04 06:52:49;;;;;;;4.15;1.95;;;;;;;25.60;68.23;99923.72;5013390;28;20373;-70
2023/08/04 06:55:17;;;;;;;1.80;1.55;;;;;;;25.74;65.55;99917.31;5013551;28;20050;-69
2023/08/04 06:57:45;;;;;;;2.03;1.67;;;;;;;25.77;67.89;99910.88;5013373;28;20064;-70
2023/08/04 07:00:14;;;;;;;1.85;1.33;;;;;;;25.90;65.60;99921.69;5013134;28;20058;-69
2023/08/04 07:02:46;;;;;;;3.08;1.58;;;;;;;26.06;65.31;99926.09;5013294;28;20046;-70
2023/08/04 07:05:15;;;;;;;3.85;2.08;;;;;;;26.07;65.87;99925.69;5013702;28;20401;-69
2023/08/04 07:07:45;;;;;;;4.50;2.00;;;;;;;26.22;65.64;99920.84;5014066;28;20409;-69
2023/08/04 07:10:14;;;;;;;4.03;2.00;;;;;;;26.28;64.38;99910.84;5014220;28;20511;-69
2023/08/04 07:12:42;;;;;;;4.63;2.00;;;;;;;26.28;63.57;99898.81;5013598;28;20049;-69
2023/08/04 07:15:10;;;;;;;3.65;1.85;;;;;;;26.15;64.88;99887.22;5013634;28;20382;-69
2023/08/04 07:17:39;;;;;;;5.40;2.30;;;;;;;26.25;65.58;99875.19;5013303;28;20434;-69
2023/08/04 07:20:08;;;;;;;4.93;1.70;;;;;;;26.15;65.98;99865.59;5013822;28;20402;-69
2023/08/04 07:22:37;;;;;;;4.00;1.70;;;;;;;26.26;64.84;99882.41;5013492;28;20394;-69
2023/08/04 07:25:06;;;;;;;2.35;1.55;;;;;;;26.28;65.53;99865.16;5013350;28;20053;-69
2023/08/04 07:27:34;;;;;;;2.72;1.88;;;;;;;26.55;65.82;99870.28;5013752;28;20403;-69
2023/08/04 07:30:03;;;;;;;7.22;3.78;;;;;;;26.76;67.79;99872.19;4995635;28;20050;-69
2023/08/04 07:32:31;;;;;;;3.80;2.08;;;;;;;26.96;61.42;99872.50;5013025;28;20401;-69
2023/08/04 07:34:59;;;;;;;5.22;1.85;;;;;;;26.94;59.67;99871.31;5013494;28;20049;-69
2023/08/04 07:37:29;;;;;;;2.65;2.10;;;;;;;26.73;59.93;99850.53;5013132;28;20061;-69
2023/08/04 07:39:57;;;;;;;5.03;2.13;;;;;;;26.78;60.44;99844.50;5013102;28;20401;-68
2023/08/04 07:42:26;;;;;;;5.22;2.00;;;;;;;26.70;62.35;99837.34;5012838;28;20512;-69
2023/08/04 07:44:54;;;;;;;5.38;2.25;;;;;;;26.72;63.13;99840.53;5011369;28;20049;-70
2023/08/04 07:47:22;;;;;;;2.63;1.77;;;;;;;26.82;60.97;99839.66;5011967;28;20601;-70
2023/08/04 07:49:50;;;;;;;3.55;1.88;;;;;;;26.97;60.75;99831.19;5012284;28;20401;-70
2023/08/04 07:52:19;;;;;;;3.33;2.05;;;;;;;27.06;63.31;99814.69;5012240;28;20053;-69
2023/08/04 07:54:47;;;;;;;4.60;1.88;;;;;;;26.93;61.35;99819.19;5011746;28;20053;-69
2023/08/04 07:57:15;;;;;;;5.35;2.17;;;;;;;27.09;66.08;99811.03;5012325;28;20695;-69
2023/08/04 07:59:44;;;;;;;4.20;2.15;;;;;;;27.22;64.50;99808.53;5012444;28;20057;-69
2023/08/04 08:02:12;;;;;;;5.97;1.70;;;;;;;27.19;64.87;99806.56;5012288;28;20405;-69
2023/08/04 08:04:40;;;;;;;3.28;2.35;;;;;;;27.33;63.16;99807.66;5012098;28;20052;-68
2023/08/04 08:07:09;;;;;;;5.32;2.72;;;;;;;27.08;59.58;99817.06;5011983;28;20434;-69
2023/08/04 08:09:37;;;;;;;3.63;2.03;;;;;;;27.09;60.49;99833.50;5011441;28;20386;-69
2023/08/04 08:12:06;;;;;;;4.05;2.05;;;;;;;27.17;64.42;99822.22;5012389;28;20069;-69
2023/08/04 08:14:34;;;;;;;3.00;1.88;;;;;;;27.22;64.99;99821.78;5012329;28;20054;-69
2023/08/04 08:17:02;;;;;;;3.00;1.88;;;;;;;27.31;63.32;99818.47;5012564;28;20417;-69
2023/08/04 08:19:31;;;;;;;3.97;2.05;;;;;;;27.43;61.98;99836.84;5012037;28;20053;-69
2023/08/04 08:22:00;;;;;;;5.60;1.98;;;;;;;27.51;61.99;99821.50;5011740;28;20512;-70
2023/08/04 08:24:28;;;;;;;3.10;1.77;;;;;;;27.57;61.92;99819.84;4994847;28;20065;-69
2023/08/04 08:26:56;;;;;;;2.75;2.35;;;;;;;27.67;63.41;99825.81;5012517;28;20042;-70
2023/08/04 08:29:24;;;;;;;4.45;1.40;;;;;;;27.61;60.65;99822.69;5012490;28;20054;-70
2023/08/04 08:31:53;;;;;;;2.83;1.63;;;;;;;27.56;61.41;99818.25;5012739;28;20061;-69
2023/08/04 08:34:21;;;;;;;5.45;2.13;;;;;;;27.60;62.07;99815.44;5012460;28;20053;-70
2023/08/04 08:36:50;;;;;;;4.47;2.25;;;;;;;27.72;64.77;99831.78;5012669;28;20405;-69
2023/08/04 08:39:18;;;;;;;6.95;2.08;;;;;;;27.92;65.57;99836.81;5012705;28;20061;-69
2023/08/04 08:41:47;;;;;;;3.60;1.90;;;;;;;27.92;61.49;99850.06;5013100;28;20053;-69
2023/08/04 08:44:15;;;;;;;5.63;2.28;;;;;;;27.89;60.24;99860.94;5012451;28;20056;-69
2023/08/04 08:46:44;;;;;;;7.63;2.35;;;;;;;27.88;61.26;99870.59;5012335;28;20050;-69
2023/08/04 08:49:13;;;;;;;7.07;2.50;;;;;;;27.44;61.11;99883.38;5012520;28;20061;-69
2023/08/04 08:51:48;;;;;;;10.00;2.63;;;;;;;27.50;60.19;99881.72;5012446;28;20065;-69
2023/08/04 08:54:19;;;;;;;8.10;2.60;;;;;;;27.58;62.04;99888.94;5011285;28;20405;-69
2023/08/04 08:56:47;;;;;;;5.13;2.40;;;;;;;27.40;63.88;99885.41;5011750;28;20505;-69
2023/08/04 08:59:16;;;;;;;6.68;2.20;;;;;;;27.44;63.12;99889.00;5011265;28;20058;-69
2023/08/04 09:01:44;;;;;;;7.05;2.65;;;;;;;27.48;63.16;99870.13;5011708;28;20046;-69
2023/08/04 09:04:14;;;;;;;9.90;3.03;;;;;;;27.40;64.37;99860.13;5011267;28;20065;-69
2023/08/04 09:06:42;;;;;;;6.30;2.60;;;;;;;27.30;64.74;99862.63;5011154;28;20409;-68
2023/08/04 09:09:10;;;;;;;11.00;3.05;;;;;;;27.34;65.29;99855.00;5011297;28;20409;-69
2023/08/04 09:11:39;;;;;;;9.55;3.72;;;;;;;27.41;63.43;99859.72;5011394;28;20077;-69
2023/08/04 09:14:08;;;;;;;10.38;3.30;;;;;;;27.33;67.48;99863.81;5011707;28;20405;-68
2023/08/04 09:16:39;;;;;;;5.63;3.13;;;;;;;27.20;63.70;99860.69;4994387;28;20046;-69
2023/08/04 09:19:07;;;;;;;11.40;3.53;;;;;;;27.34;67.10;99865.41;5010700;28;20409;-68
2023/08/04 09:21:37;;;;;;;8.10;2.85;;;;;;;27.37;67.30;99873.81;5011686;28;20049;-69
2023/08/04 09:24:10;;;;;;;9.88;2.95;;;;;;;27.26;62.77;99873.09;5011733;28;20382;-69
2023/08/04 09:26:45;;;;;;;10.15;2.47;;;;;;;27.30;66.53;99871.06;5011000;28;20053;-70
2023/08/04 09:29:14;;;;;;;7.07;2.83;;;;;;;27.39;65.37;99872.59;5011278;28;20058;-69
2023/08/04 09:31:46;;;;;;;8.88;3.38;;;;;;;27.35;64.85;99876.25;5011350;28;20061;-69
2023/08/04 09:34:15;;;;;;;5.47;3.22;;;;;;;27.28;68.39;99881.91;5011938;28;20049;-70
2023/08/04 09:36:46;;;;;;;3.80;2.60;;;;;;;27.35;66.86;99887.47;5011826;28;20053;-70
2023/08/04 09:39:16;;;;;;;6.45;2.20;;;;;;;27.34;64.06;99894.31;5011834;28;20057;-69
2023/08/04 09:41:46;;;;;;;8.38;2.55;;;;;;;27.40;65.31;99908.69;5011346;28;20057;-69
2023/08/04 09:44:15;;;;;;;3.13;2.22;;;;;;;27.43;64.55;99915.50;5010618;28;20382;-69
2023/08/04 09:46:52;;;;;;;4.57;2.38;;;;;;;27.41;63.25;99915.13;5011452;28;20405;-69
2023/08/04 09:49:21;;;;;;;3.10;2.30;;;;;;;27.48;64.01;99915.06;5011871;28;20418;-70
2023/08/04 09:51:50;;;;;;;5.00;2.30;;;;;;;27.59;64.32;99921.44;5011510;28;20384;-69
2023/08/04 09:54:19;;;;;;;8.57;3.53;;;;;;;27.58;61.67;99922.66;5013407;28;20784;-69
2023/08/04 09:56:49;;;;;;;3.72;2.90;;;;;;;27.89;63.90;99925.59;5015167;28;20049;-70
2023/08/04 09:59:19;;;;;;;8.23;2.55;;;;;;;28.14;58.61;99927.34;5015178;28;20054;-70
2023/08/04 10:01:47;;;;;;;8.13;2.90;;;;;;;28.33;59.39;99944.09;5015620;28;20045;-70
2023/08/04 10:04:18;;;;;;;5.53;2.58;;;;;;;28.38;58.86;99954.84;5014553;28;20541;-70
2023/08/04 10:06:48;;;;;;;2.53;1.90;;;;;;;28.49;58.70;99957.56;5015081;28;20057;-70
2023/08/04 10:09:17;;;;;;;4.03;2.10;;;;;;;28.55;57.60;99956.69;5013590;28;20061;-70
2023/08/04 10:11:46;;;;;;;5.88;1.90;;;;;;;28.62;57.96;99958.63;5013726;28;20432;-70
2023/08/04 10:14:15;;;;;;;4.65;2.20;;;;;;;28.61;57.16;99976.72;5014314;28;20057;-68
2023/08/04 10:16:44;;;;;;;3.67;2.17;;;;;;;28.76;61.55;99982.19;5014249;28;20061;-68
2023/08/04 10:19:13;;;;;;;2.25;2.05;;;;;;;28.51;57.10;99988.91;5013581;28;20412;-67
2023/08/04 10:21:42;;;;;;;6.28;2.92;;;;;;;28.51;61.73;99972.00;5014628;28;20378;-70
2023/08/04 10:24:13;;;;;;;4.35;2.55;;;;;;;28.75;59.09;99974.97;5013883;28;20404;-68
2023/08/04 10:26:47;;;;;;;5.63;2.92;;;;;;;28.83;58.94;99974.44;5014024;28;20054;-68
2023/08/04 10:29:16;;;;;;;5.05;2.50;;;;;;;29.05;59.82;99977.03;5013519;28;20085;-67
2023/08/04 10:31:51;;;;;;;4.18;2.55;;;;;;;29.23;57.18;99970.34;5013541;28;20079;-67
2023/08/04 10:34:26;;;;;;;3.88;2.42;;;;;;;29.21;54.88;99967.94;5013446;28;20050;-68
2023/08/04 10:37:01;;;;;;;3.63;2.60;;;;;;;29.41;55.96;99966.47;5013517;28;20050;-67
2023/08/04 10:39:37;;;;;;;4.63;2.30;;;;;;;29.50;54.28;99961.09;5013694;28;20061;-68
2023/08/04 10:42:11;;;;;;;3.42;2.25;;;;;;;29.30;54.47;99946.88;5014154;28;20054;-68
2023/08/04 10:45:07;;;;;;;6.40;2.28;;;;;;;29.11;51.58;99946.34;5013958;28;20687;-67
2023/08/04 10:47:45;;;;;;;4.25;2.50;;;;;;;28.94;54.45;99934.91;4990605;28;20057;-68
2023/08/04 10:50:34;;;;;;;5.65;3.00;;;;;;;28.92;55.43;99943.00;5013818;28;20065;-68
2023/08/04 10:53:02;;;;;;;4.65;2.70;;;;;;;29.02;54.28;99938.44;5013745;28;20050;-67
2023/08/04 10:55:33;;;;;;;3.50;2.35;;;;;;;28.88;57.57;99936.59;5014407;28;20076;-69
2023/08/04 10:58:14;;;;;;;5.32;2.92;;;;;;;29.03;57.86;99930.78;5014204;28;20050;-69
2023/08/04 11:00:44;;;;;;;8.60;2.65;;;;;;;29.24;59.87;99929.69;5014044;28;20080;-69
2023/08/04 11:03:36;;;;;;;7.43;2.45;;;;;;;29.43;57.39;99911.28;5013681;28;20062;-67
2023/08/04 11:06:04;;;;;;;8.07;3.03;;;;;;;29.68;56.65;99914.91;5013113;28;20057;-70
2023/08/04 11:08:33;;;;;;;5.93;2.70;;;;;;;29.96;52.60;99913.63;5013765;28;20049;-69
2023/08/04 11:11:01;;;;;;;3.90;2.22;;;;;;;29.62;55.47;99918.22;5014113;28;20054;-70
2023/08/04 11:13:30;;;;;;;3.90;2.50;;;;;;;29.45;54.63;99924.91;5013993;28;20056;-68
2023/08/04 11:16:02;;;;;;;3.28;2.50;;;;;;;29.59;56.21;99912.66;5013714;28;20399;-68
2023/08/04 11:18:31;;;;;;;4.88;2.58;;;;;;;29.68;54.17;99904.47;5012974;28;20053;-68
2023/08/04 11:21:02;;;;;;;6.32;2.97;;;;;;;30.03;51.30;99905.03;5013175;28;20057;-67
2023/08/04 11:23:31;;;;;;;3.05;2.15;;;;;;;30.00;52.37;99891.78;5012967;28;20057;-67
2023/08/04 11:26:00;;;;;;;8.15;2.65;;;;;;;30.27;51.44;99876.81;5013166;28;20096;-67
2023/08/04 11:28:29;;;;;;;3.20;2.20;;;;;;;30.60;50.18;99893.06;5012253;28;20046;-68
2023/08/04 11:31:08;;;;;;;6.05;2.22;;;;;;;30.63;51.28;99895.00;5012329;28;20393;-68
2023/08/04 11:33:43;;;;;;;3.75;1.90;;;;;;;30.68;53.10;99888.03;5013220;28;20042;-68
2023/08/04 11:36:11;;;;;;;4.78;2.13;;;;;;;30.47;53.54;99890.09;5012707;28;20548;-67
2023/08/04 11:38:39;;;;;;;3.25;1.92;;;;;;;30.49;51.04;99887.63;5012474;28;20053;-68
2023/08/04 11:41:11;;;;;;;5.40;2.35;;;;;;;30.61;50.23;99888.19;5011981;28;20064;-68
2023/08/04 11:43:40;;;;;;;4.20;2.15;;;;;;;30.26;50.52;99883.66;5012248;28;20405;-68